sensor_id;sensor_type;location;lat;lon;timestamp;P1;durP1;ratioP1;P2;durP2;ratioP2
10910;SDS011;5508;49.150;11.030;2023-09-12T00:02:30;13.30;;;8.03;;
10910;SDS011;5508;49.150;11.030;2023-09-12T00:05:30;11.67;;;7.87;;
10910;SDS011;5508;49.150;11.030;2023-09-12T00:08:31;12.77;;;8.53;;
10910;SDS011;5508;49.150;11.030;2023-09-12T00:11:31;10.97;;;7.83;;
10910;SDS011;5508;49.150;11.030;2023-09-12T00:14:32;18.53;;;8.77;;
10910;SDS011;5508;49.150;11.030;2023-09-12T00:17:33;11.97;;;7.43;;
10910;SDS011;5508;49.150;11.030;2023-09-12T00:20:33;13.53;;;8.73;;
10910;SDS011;5508;49.150;11.030;2023-09-12T00:23:34;15.03;;;8.53;;
10910;SDS011;5508;49.150;11.030;2023-09-12T00:26:35;9.57;;;7.63;;
10910;SDS011;5508;49.150;11.030;2023-09-12T00:29:35;8.40;;;7.13;;
10910;SDS011;5508;49.150;11.030;2023-09-12T00:32:36;9.97;;;6.50;;
10910;SDS011;5508;49.150;11.030;2023-09-12T00:35:37;9.00;;;6.77;;
10910;SDS011;5508;49.150;11.030;2023-09-12T00:38:37;8.57;;;6.20;;
10910;SDS011;5508;49.150;11.030;2023-09-12T00:41:38;10.83;;;7.23;;
10910;SDS011;5508;49.150;11.030;2023-09-12T00:44:38;10.80;;;7.80;;
10910;SDS011;5508;49.150;11.030;2023-09-12T00:47:39;14.70;;;7.50;;
10910;SDS011;5508;49.150;11.030;2023-09-12T00:50:40;10.63;;;6.93;;
10910;SDS011;5508;49.150;11.030;2023-09-12T00:53:42;13.30;;;7.40;;
10910;SDS011;5508;49.150;11.030;2023-09-12T00:56:43;9.77;;;7.43;;
10910;SDS011;5508;49.150;11.030;2023-09-12T00:59:44;11.27;;;7.70;;
10910;SDS011;5508;49.150;11.030;2023-09-12T01:02:45;14.40;;;8.03;;
10910;SDS011;5508;49.150;11.030;2023-09-12T01:05:46;10.00;;;7.70;;
10910;SDS011;5508;49.150;11.030;2023-09-12T01:08:48;9.70;;;7.40;;
10910;SDS011;5508;49.150;11.030;2023-09-12T01:11:48;8.17;;;7.00;;
10910;SDS011;5508;49.150;11.030;2023-09-12T01:14:49;9.80;;;7.50;;
10910;SDS011;5508;49.150;11.030;2023-09-12T01:17:50;10.07;;;7.67;;
10910;SDS011;5508;49.150;11.030;2023-09-12T01:21:13;11.80;;;7.30;;
10910;SDS011;5508;49.150;11.030;2023-09-12T01:27:41;10.80;;;7.13;;
10910;SDS011;5508;49.150;11.030;2023-09-12T01:30:45;11.13;;;7.80;;
10910;SDS011;5508;49.150;11.030;2023-09-12T01:33:48;11.13;;;8.17;;
10910;SDS011;5508;49.150;11.030;2023-09-12T01:36:49;13.97;;;7.87;;
10910;SDS011;5508;49.150;11.030;2023-09-12T01:39:49;11.57;;;7.60;;
10910;SDS011;5508;49.150;11.030;2023-09-12T01:42:50;10.77;;;7.77;;
10910;SDS011;5508;49.150;11.030;2023-09-12T01:45:53;9.73;;;8.10;;
10910;SDS011;5508;49.150;11.030;2023-09-12T01:48:56;12.43;;;7.13;;
10910;SDS011;5508;49.150;11.030;2023-09-12T01:51:58;10.40;;;7.37;;
10910;SDS011;5508;49.150;11.030;2023-09-12T01:54:59;7.80;;;6.57;;
10910;SDS011;5508;49.150;11.030;2023-09-12T01:58:00;9.13;;;7.80;;
10910;SDS011;5508;49.150;11.030;2023-09-12T02:01:02;12.30;;;8.23;;
10910;SDS011;5508;49.150;11.030;2023-09-12T02:04:02;12.77;;;8.13;;
10910;SDS011;5508;49.150;11.030;2023-09-12T02:07:08;11.17;;;8.33;;
10910;SDS011;5508;49.150;11.030;2023-09-12T02:10:09;9.97;;;8.03;;
10910;SDS011;5508;49.150;11.030;2023-09-12T02:13:09;13.13;;;8.27;;
10910;SDS011;5508;49.150;11.030;2023-09-12T02:16:10;15.97;;;7.87;;
10910;SDS011;5508;49.150;11.030;2023-09-12T02:19:11;10.63;;;7.60;;
10910;SDS011;5508;49.150;11.030;2023-09-12T02:22:11;9.57;;;7.80;;
10910;SDS011;5508;49.150;11.030;2023-09-12T02:25:12;11.73;;;7.80;;
10910;SDS011;5508;49.150;11.030;2023-09-12T02:28:12;9.87;;;7.87;;
10910;SDS011;5508;49.150;11.030;2023-09-12T02:31:13;11.50;;;7.80;;
10910;SDS011;5508;49.150;11.030;2023-09-12T02:34:13;10.67;;;7.80;;
10910;SDS011;5508;49.150;11.030;2023-09-12T02:37:14;13.97;;;8.70;;
10910;SDS011;5508;49.150;11.030;2023-09-12T02:40:15;11.13;;;8.03;;
10910;SDS011;5508;49.150;11.030;2023-09-12T02:43:18;13.17;;;7.80;;
10910;SDS011;5508;49.150;11.030;2023-09-12T02:46:18;11.00;;;7.77;;
10910;SDS011;5508;49.150;11.030;2023-09-12T02:49:19;13.63;;;7.53;;
10910;SDS011;5508;49.150;11.030;2023-09-12T02:52:19;10.60;;;8.20;;
10910;SDS011;5508;49.150;11.030;2023-09-12T02:55:20;11.50;;;8.60;;
10910;SDS011;5508;49.150;11.030;2023-09-12T02:58:20;11.30;;;8.57;;
10910;SDS011;5508;49.150;11.030;2023-09-12T03:01:21;12.90;;;8.60;;
10910;SDS011;5508;49.150;11.030;2023-09-12T03:04:23;14.27;;;9.20;;
10910;SDS011;5508;49.150;11.030;2023-09-12T03:07:25;15.30;;;9.10;;
10910;SDS011;5508;49.150;11.030;2023-09-12T03:10:26;16.77;;;9.60;;
10910;SDS011;5508;49.150;11.030;2023-09-12T03:13:27;12.90;;;8.97;;
10910;SDS011;5508;49.150;11.030;2023-09-12T03:16:28;14.50;;;9.77;;
10910;SDS011;5508;49.150;11.030;2023-09-12T03:19:29;14.10;;;9.63;;
10910;SDS011;5508;49.150;11.030;2023-09-12T03:22:30;10.53;;;9.00;;
10910;SDS011;5508;49.150;11.030;2023-09-12T03:25:36;12.57;;;9.57;;
10910;SDS011;5508;49.150;11.030;2023-09-12T03:28:37;13.27;;;9.23;;
10910;SDS011;5508;49.150;11.030;2023-09-12T03:31:38;9.77;;;8.73;;
10910;SDS011;5508;49.150;11.030;2023-09-12T03:34:39;12.10;;;8.77;;
10910;SDS011;5508;49.150;11.030;2023-09-12T03:37:39;14.90;;;8.43;;
10910;SDS011;5508;49.150;11.030;2023-09-12T03:40:42;11.53;;;8.47;;
10910;SDS011;5508;49.150;11.030;2023-09-12T03:43:43;9.17;;;8.27;;
10910;SDS011;5508;49.150;11.030;2023-09-12T03:46:43;10.93;;;8.90;;
10910;SDS011;5508;49.150;11.030;2023-09-12T03:49:44;10.30;;;8.77;;
10910;SDS011;5508;49.150;11.030;2023-09-12T03:52:45;13.40;;;8.70;;
10910;SDS011;5508;49.150;11.030;2023-09-12T03:55:45;13.73;;;9.23;;
10910;SDS011;5508;49.150;11.030;2023-09-12T03:58:46;14.07;;;8.77;;
10910;SDS011;5508;49.150;11.030;2023-09-12T04:01:47;10.63;;;9.03;;
10910;SDS011;5508;49.150;11.030;2023-09-12T04:04:47;12.50;;;8.60;;
10910;SDS011;5508;49.150;11.030;2023-09-12T04:07:48;9.63;;;7.77;;
10910;SDS011;5508;49.150;11.030;2023-09-12T04:10:49;12.60;;;9.07;;
10910;SDS011;5508;49.150;11.030;2023-09-12T04:13:49;13.10;;;9.37;;
10910;SDS011;5508;49.150;11.030;2023-09-12T04:16:50;9.23;;;8.20;;
10910;SDS011;5508;49.150;11.030;2023-09-12T04:19:50;12.77;;;8.30;;
10910;SDS011;5508;49.150;11.030;2023-09-12T04:22:51;10.33;;;8.20;;
10910;SDS011;5508;49.150;11.030;2023-09-12T04:25:51;10.80;;;8.23;;
10910;SDS011;5508;49.150;11.030;2023-09-12T04:28:52;16.00;;;9.13;;
10910;SDS011;5508;49.150;11.030;2023-09-12T04:31:53;11.43;;;8.73;;
10910;SDS011;5508;49.150;11.030;2023-09-12T04:34:58;10.87;;;8.53;;
10910;SDS011;5508;49.150;11.030;2023-09-12T04:37:59;10.43;;;8.37;;
10910;SDS011;5508;49.150;11.030;2023-09-12T04:41:01;14.07;;;9.57;;
10910;SDS011;5508;49.150;11.030;2023-09-12T04:44:04;10.67;;;7.90;;
10910;SDS011;5508;49.150;11.030;2023-09-12T04:47:05;12.67;;;7.97;;
10910;SDS011;5508;49.150;11.030;2023-09-12T04:50:06;9.00;;;8.10;;
10910;SDS011;5508;49.150;11.030;2023-09-12T04:53:07;9.07;;;8.10;;
10910;SDS011;5508;49.150;11.030;2023-09-12T04:56:07;9.87;;;7.67;;
10910;SDS011;5508;49.150;11.030;2023-09-12T04:59:10;12.53;;;8.10;;
10910;SDS011;5508;49.150;11.030;2023-09-12T05:02:10;11.37;;;8.80;;
10910;SDS011;5508;49.150;11.030;2023-09-12T05:05:11;13.43;;;9.37;;
10910;SDS011;5508;49.150;11.030;2023-09-12T05:08:11;14.20;;;9.77;;
10910;SDS011;5508;49.150;11.030;2023-09-12T05:11:12;12.67;;;8.77;;
10910;SDS011;5508;49.150;11.030;2023-09-12T05:14:12;13.07;;;8.33;;
10910;SDS011;5508;49.150;11.030;2023-09-12T05:17:13;12.50;;;8.73;;
10910;SDS011;5508;49.150;11.030;2023-09-12T05:20:13;13.87;;;8.70;;
10910;SDS011;5508;49.150;11.030;2023-09-12T05:23:14;16.27;;;8.20;;
10910;SDS011;5508;49.150;11.030;2023-09-12T05:26:15;10.07;;;8.20;;
10910;SDS011;5508;49.150;11.030;2023-09-12T05:29:15;9.63;;;7.80;;
10910;SDS011;5508;49.150;11.030;2023-09-12T05:32:16;15.40;;;9.10;;
10910;SDS011;5508;49.150;11.030;2023-09-12T05:35:16;15.10;;;8.20;;
10910;SDS011;5508;49.150;11.030;2023-09-12T05:38:17;13.57;;;8.60;;
10910;SDS011;5508;49.150;11.030;2023-09-12T05:41:18;13.87;;;9.10;;
10910;SDS011;5508;49.150;11.030;2023-09-12T05:44:18;14.77;;;9.83;;
10910;SDS011;5508;49.150;11.030;2023-09-12T05:47:19;16.60;;;9.57;;
10910;SDS011;5508;49.150;11.030;2023-09-12T05:50:20;20.67;;;9.27;;
10910;SDS011;5508;49.150;11.030;2023-09-12T05:53:21;12.67;;;8.67;;
10910;SDS011;5508;49.150;11.030;2023-09-12T05:56:22;19.00;;;9.60;;
10910;SDS011;5508;49.150;11.030;2023-09-12T05:59:22;18.40;;;9.47;;
10910;SDS011;5508;49.150;11.030;2023-09-12T06:02:23;14.93;;;8.80;;
10910;SDS011;5508;49.150;11.030;2023-09-12T06:05:23;15.10;;;9.63;;
10910;SDS011;5508;49.150;11.030;2023-09-12T06:08:24;13.27;;;9.00;;
10910;SDS011;5508;49.150;11.030;2023-09-12T06:11:25;14.83;;;8.80;;
10910;SDS011;5508;49.150;11.030;2023-09-12T06:14:25;11.17;;;9.97;;
10910;SDS011;5508;49.150;11.030;2023-09-12T06:17:26;12.17;;;9.53;;
10910;SDS011;5508;49.150;11.030;2023-09-12T06:20:26;11.17;;;9.40;;
10910;SDS011;5508;49.150;11.030;2023-09-12T06:23:27;14.67;;;9.80;;
10910;SDS011;5508;49.150;11.030;2023-09-12T06:26:28;16.40;;;8.83;;
10910;SDS011;5508;49.150;11.030;2023-09-12T06:29:28;10.47;;;9.30;;
10910;SDS011;5508;49.150;11.030;2023-09-12T06:32:29;17.13;;;10.10;;
10910;SDS011;5508;49.150;11.030;2023-09-12T06:35:29;14.77;;;10.27;;
10910;SDS011;5508;49.150;11.030;2023-09-12T06:38:32;13.47;;;9.57;;
10910;SDS011;5508;49.150;11.030;2023-09-12T06:41:32;12.93;;;8.80;;
10910;SDS011;5508;49.150;11.030;2023-09-12T06:44:33;13.33;;;9.00;;
10910;SDS011;5508;49.150;11.030;2023-09-12T06:47:34;14.47;;;9.40;;
10910;SDS011;5508;49.150;11.030;2023-09-12T06:50:35;12.23;;;8.80;;
10910;SDS011;5508;49.150;11.030;2023-09-12T06:53:38;9.33;;;8.33;;
10910;SDS011;5508;49.150;11.030;2023-09-12T06:56:38;11.23;;;8.50;;
10910;SDS011;5508;49.150;11.030;2023-09-12T06:59:41;12.30;;;8.53;;
10910;SDS011;5508;49.150;11.030;2023-09-12T07:02:42;10.97;;;8.90;;
10910;SDS011;5508;49.150;11.030;2023-09-12T07:05:43;13.83;;;8.70;;
10910;SDS011;5508;49.150;11.030;2023-09-12T07:08:44;15.87;;;8.20;;
10910;SDS011;5508;49.150;11.030;2023-09-12T07:11:44;9.40;;;8.50;;
10910;SDS011;5508;49.150;11.030;2023-09-12T07:14:45;14.47;;;8.47;;
10910;SDS011;5508;49.150;11.030;2023-09-12T07:17:45;10.47;;;8.03;;
10910;SDS011;5508;49.150;11.030;2023-09-12T07:20:47;13.33;;;8.37;;
10910;SDS011;5508;49.150;11.030;2023-09-12T07:24:00;11.40;;;8.13;;
10910;SDS011;5508;49.150;11.030;2023-09-12T07:27:01;10.25;;;8.00;;
10910;SDS011;5508;49.150;11.030;2023-09-12T07:30:01;10.20;;;8.00;;
10910;SDS011;5508;49.150;11.030;2023-09-12T07:33:03;11.48;;;7.57;;
10910;SDS011;5508;49.150;11.030;2023-09-12T07:36:06;11.45;;;8.50;;
10910;SDS011;5508;49.150;11.030;2023-09-12T07:39:07;10.65;;;8.32;;
10910;SDS011;5508;49.150;11.030;2023-09-12T07:42:07;13.95;;;8.65;;
10910;SDS011;5508;49.150;11.030;2023-09-12T07:45:08;8.77;;;7.82;;
10910;SDS011;5508;49.150;11.030;2023-09-12T07:48:09;11.00;;;7.40;;
10910;SDS011;5508;49.150;11.030;2023-09-12T07:51:16;11.52;;;8.07;;
10910;SDS011;5508;49.150;11.030;2023-09-12T07:54:19;9.80;;;7.95;;
10910;SDS011;5508;49.150;11.030;2023-09-12T07:57:20;11.80;;;8.32;;
10910;SDS011;5508;49.150;11.030;2023-09-12T08:00:20;15.20;;;8.48;;
10910;SDS011;5508;49.150;11.030;2023-09-12T08:03:21;15.65;;;8.95;;
10910;SDS011;5508;49.150;11.030;2023-09-12T08:06:21;10.98;;;8.73;;
10910;SDS011;5508;49.150;11.030;2023-09-12T08:09:28;9.20;;;8.23;;
10910;SDS011;5508;49.150;11.030;2023-09-12T08:12:50;11.55;;;8.40;;
10910;SDS011;5508;49.150;11.030;2023-09-12T08:15:51;11.02;;;7.95;;
10910;SDS011;5508;49.150;11.030;2023-09-12T08:18:51;16.27;;;8.18;;
10910;SDS011;5508;49.150;11.030;2023-09-12T08:21:52;11.27;;;8.13;;
10910;SDS011;5508;49.150;11.030;2023-09-12T08:24:52;11.68;;;7.82;;
10910;SDS011;5508;49.150;11.030;2023-09-12T08:27:53;10.35;;;7.85;;
10910;SDS011;5508;49.150;11.030;2023-09-12T08:30:53;13.65;;;8.30;;
10910;SDS011;5508;49.150;11.030;2023-09-12T08:33:54;12.23;;;7.85;;
10910;SDS011;5508;49.150;11.030;2023-09-12T08:36:54;12.65;;;7.70;;
10910;SDS011;5508;49.150;11.030;2023-09-12T08:39:55;11.93;;;7.90;;
10910;SDS011;5508;49.150;11.030;2023-09-12T08:42:59;8.32;;;7.50;;
10910;SDS011;5508;49.150;11.030;2023-09-12T08:45:59;9.27;;;7.05;;
10910;SDS011;5508;49.150;11.030;2023-09-12T08:49:00;8.02;;;6.85;;
10910;SDS011;5508;49.150;11.030;2023-09-12T08:52:00;11.93;;;7.30;;
10910;SDS011;5508;49.150;11.030;2023-09-12T08:55:01;11.35;;;7.80;;
10910;SDS011;5508;49.150;11.030;2023-09-12T08:58:03;10.13;;;6.53;;
10910;SDS011;5508;49.150;11.030;2023-09-12T09:01:06;9.43;;;7.60;;
10910;SDS011;5508;49.150;11.030;2023-09-12T09:04:07;11.65;;;7.22;;
10910;SDS011;5508;49.150;11.030;2023-09-12T09:07:08;12.23;;;7.32;;
10910;SDS011;5508;49.150;11.030;2023-09-12T09:10:13;9.07;;;6.70;;
10910;SDS011;5508;49.150;11.030;2023-09-12T09:13:15;10.00;;;6.22;;
10910;SDS011;5508;49.150;11.030;2023-09-12T09:16:16;10.85;;;6.35;;
10910;SDS011;5508;49.150;11.030;2023-09-12T09:19:19;7.78;;;6.32;;
10910;SDS011;5508;49.150;11.030;2023-09-12T09:22:19;8.52;;;6.93;;
10910;SDS011;5508;49.150;11.030;2023-09-12T09:25:20;13.10;;;7.00;;
10910;SDS011;5508;49.150;11.030;2023-09-12T09:28:21;9.00;;;6.15;;
10910;SDS011;5508;49.150;11.030;2023-09-12T09:31:21;11.48;;;7.22;;
10910;SDS011;5508;49.150;11.030;2023-09-12T09:34:22;7.70;;;6.72;;
10910;SDS011;5508;49.150;11.030;2023-09-12T09:37:24;8.93;;;6.90;;
10910;SDS011;5508;49.150;11.030;2023-09-12T09:40:24;13.50;;;7.20;;
10910;SDS011;5508;49.150;11.030;2023-09-12T09:43:25;10.98;;;7.32;;
10910;SDS011;5508;49.150;11.030;2023-09-12T09:46:26;11.43;;;6.95;;
10910;SDS011;5508;49.150;11.030;2023-09-12T09:49:27;11.80;;;6.55;;
10910;SDS011;5508;49.150;11.030;2023-09-12T09:52:27;8.50;;;6.65;;
10910;SDS011;5508;49.150;11.030;2023-09-12T09:55:28;11.05;;;6.85;;
10910;SDS011;5508;49.150;11.030;2023-09-12T09:58:29;10.10;;;6.30;;
10910;SDS011;5508;49.150;11.030;2023-09-12T10:01:29;9.52;;;6.60;;
10910;SDS011;5508;49.150;11.030;2023-09-12T10:04:31;9.57;;;6.88;;
10910;SDS011;5508;49.150;11.030;2023-09-12T10:07:34;7.40;;;6.47;;
10910;SDS011;5508;49.150;11.030;2023-09-12T10:10:38;8.80;;;7.05;;
10910;SDS011;5508;49.150;11.030;2023-09-12T10:13:39;10.23;;;6.63;;
10910;SDS011;5508;49.150;11.030;2023-09-12T10:16:47;7.35;;;6.55;;
10910;SDS011;5508;49.150;11.030;2023-09-12T10:19:54;9.88;;;6.25;;
10910;SDS011;5508;49.150;11.030;2023-09-12T10:23:07;8.93;;;6.70;;
10910;SDS011;5508;49.150;11.030;2023-09-12T10:26:13;9.38;;;6.82;;
10910;SDS011;5508;49.150;11.030;2023-09-12T10:29:14;10.27;;;6.38;;
10910;SDS011;5508;49.150;11.030;2023-09-12T10:32:15;11.00;;;6.30;;
10910;SDS011;5508;49.150;11.030;2023-09-12T10:35:18;6.13;;;5.53;;
10910;SDS011;5508;49.150;11.030;2023-09-12T10:38:19;7.45;;;6.30;;
10910;SDS011;5508;49.150;11.030;2023-09-12T10:41:21;7.57;;;5.80;;
10910;SDS011;5508;49.150;11.030;2023-09-12T10:44:23;6.38;;;5.80;;
10910;SDS011;5508;49.150;11.030;2023-09-12T10:47:25;8.75;;;6.18;;
10910;SDS011;5508;49.150;11.030;2023-09-12T10:50:26;7.65;;;6.57;;
10910;SDS011;5508;49.150;11.030;2023-09-12T10:53:27;8.48;;;6.10;;
10910;SDS011;5508;49.150;11.030;2023-09-12T10:56:28;8.32;;;6.75;;
10910;SDS011;5508;49.150;11.030;2023-09-12T10:59:32;7.40;;;6.18;;
10910;SDS011;5508;49.150;11.030;2023-09-12T11:02:36;7.40;;;6.57;;
10910;SDS011;5508;49.150;11.030;2023-09-12T11:05:50;8.02;;;6.03;;
10910;SDS011;5508;49.150;11.030;2023-09-12T11:12:33;7.60;;;6.35;;
10910;SDS011;5508;49.150;11.030;2023-09-12T11:15:35;11.48;;;6.20;;
10910;SDS011;5508;49.150;11.030;2023-09-12T11:19:40;7.65;;;6.15;;
10910;SDS011;5508;49.150;11.030;2023-09-12T11:22:22;7.53;;;6.07;;
10910;SDS011;5508;49.150;11.030;2023-09-12T11:25:27;8.13;;;5.63;;
10910;SDS011;5508;49.150;11.030;2023-09-12T11:28:29;6.95;;;6.25;;
10910;SDS011;5508;49.150;11.030;2023-09-12T11:31:30;7.35;;;6.13;;
10910;SDS011;5508;49.150;11.030;2023-09-12T11:34:51;9.82;;;6.03;;
10910;SDS011;5508;49.150;11.030;2023-09-12T11:37:58;7.03;;;5.97;;
10910;SDS011;5508;49.150;11.030;2023-09-12T11:40:59;6.20;;;5.43;;
10910;SDS011;5508;49.150;11.030;2023-09-12T11:44:02;6.72;;;5.75;;
10910;SDS011;5508;49.150;11.030;2023-09-12T11:47:04;9.32;;;5.63;;
10910;SDS011;5508;49.150;11.030;2023-09-12T11:50:06;6.70;;;5.63;;
10910;SDS011;5508;49.150;11.030;2023-09-12T11:53:08;6.72;;;6.10;;
10910;SDS011;5508;49.150;11.030;2023-09-12T11:56:10;7.07;;;5.70;;
10910;SDS011;5508;49.150;11.030;2023-09-12T11:59:11;6.68;;;5.78;;
10910;SDS011;5508;49.150;11.030;2023-09-12T12:02:11;8.02;;;5.95;;
10910;SDS011;5508;49.150;11.030;2023-09-12T12:05:12;5.90;;;5.35;;
10910;SDS011;5508;49.150;11.030;2023-09-12T12:08:13;10.38;;;5.95;;
10910;SDS011;5508;49.150;11.030;2023-09-12T12:11:15;8.85;;;6.15;;
10910;SDS011;5508;49.150;11.030;2023-09-12T12:14:16;7.25;;;5.68;;
10910;SDS011;5508;49.150;11.030;2023-09-12T12:17:19;6.13;;;5.53;;
10910;SDS011;5508;49.150;11.030;2023-09-12T12:20:19;6.13;;;5.30;;
10910;SDS011;5508;49.150;11.030;2023-09-12T12:23:20;7.13;;;5.55;;
10910;SDS011;5508;49.150;11.030;2023-09-12T12:26:21;8.93;;;5.90;;
10910;SDS011;5508;49.150;11.030;2023-09-12T12:29:22;10.55;;;6.35;;
10910;SDS011;5508;49.150;11.030;2023-09-12T12:32:22;6.75;;;5.95;;
10910;SDS011;5508;49.150;11.030;2023-09-12T12:35:23;7.13;;;6.47;;
10910;SDS011;5508;49.150;11.030;2023-09-12T12:38:24;7.22;;;6.35;;
10910;SDS011;5508;49.150;11.030;2023-09-12T12:41:28;8.02;;;6.15;;
10910;SDS011;5508;49.150;11.030;2023-09-12T12:44:33;7.68;;;6.05;;
10910;SDS011;5508;49.150;11.030;2023-09-12T12:47:40;7.00;;;6.30;;
10910;SDS011;5508;49.150;11.030;2023-09-12T12:50:42;8.80;;;6.18;;
10910;SDS011;5508;49.150;11.030;2023-09-12T12:53:43;8.32;;;6.10;;
10910;SDS011;5508;49.150;11.030;2023-09-12T12:56:46;7.63;;;6.13;;
10910;SDS011;5508;49.150;11.030;2023-09-12T12:59:50;5.93;;;5.38;;
10910;SDS011;5508;49.150;11.030;2023-09-12T13:02:51;8.25;;;6.93;;
10910;SDS011;5508;49.150;11.030;2023-09-12T13:05:51;7.63;;;6.93;;
10910;SDS011;5508;49.150;11.030;2023-09-12T13:08:52;6.20;;;5.70;;
10910;SDS011;5508;49.150;11.030;2023-09-12T13:11:53;8.38;;;6.22;;
10910;SDS011;5508;49.150;11.030;2023-09-12T13:14:53;8.73;;;6.80;;
10910;SDS011;5508;49.150;11.030;2023-09-12T13:17:54;7.80;;;6.10;;
10910;SDS011;5508;49.150;11.030;2023-09-12T13:20:54;7.70;;;6.20;;
10910;SDS011;5508;49.150;11.030;2023-09-12T13:23:55;8.77;;;6.85;;
10910;SDS011;5508;49.150;11.030;2023-09-12T13:26:56;7.28;;;6.32;;
10910;SDS011;5508;49.150;11.030;2023-09-12T13:29:56;7.47;;;6.47;;
10910;SDS011;5508;49.150;11.030;2023-09-12T13:32:57;8.55;;;6.43;;
10910;SDS011;5508;49.150;11.030;2023-09-12T13:35:58;10.20;;;6.05;;
10910;SDS011;5508;49.150;11.030;2023-09-12T13:38:58;6.22;;;5.70;;
10910;SDS011;5508;49.150;11.030;2023-09-12T13:41:59;7.22;;;6.00;;
10910;SDS011;5508;49.150;11.030;2023-09-12T13:45:03;6.90;;;6.20;;
10910;SDS011;5508;49.150;11.030;2023-09-12T13:48:05;6.70;;;6.03;;
10910;SDS011;5508;49.150;11.030;2023-09-12T13:51:06;6.65;;;5.95;;
10910;SDS011;5508;49.150;11.030;2023-09-12T13:54:07;8.18;;;6.25;;
10910;SDS011;5508;49.150;11.030;2023-09-12T13:57:15;8.55;;;5.97;;
10910;SDS011;5508;49.150;11.030;2023-09-12T14:00:16;7.10;;;5.50;;
10910;SDS011;5508;49.150;11.030;2023-09-12T14:03:17;8.00;;;6.15;;
10910;SDS011;5508;49.150;11.030;2023-09-12T14:06:18;8.25;;;6.40;;
10910;SDS011;5508;49.150;11.030;2023-09-12T14:09:18;8.77;;;6.40;;
10910;SDS011;5508;49.150;11.030;2023-09-12T14:12:19;7.00;;;6.13;;
10910;SDS011;5508;49.150;11.030;2023-09-12T14:15:19;8.30;;;6.43;;
10910;SDS011;5508;49.150;11.030;2023-09-12T14:18:20;11.25;;;6.30;;
10910;SDS011;5508;49.150;11.030;2023-09-12T14:21:21;9.32;;;6.50;;
10910;SDS011;5508;49.150;11.030;2023-09-12T14:24:21;6.60;;;6.00;;
10910;SDS011;5508;49.150;11.030;2023-09-12T14:27:22;6.30;;;5.70;;
10910;SDS011;5508;49.150;11.030;2023-09-12T14:30:22;7.05;;;5.97;;
10910;SDS011;5508;49.150;11.030;2023-09-12T14:33:26;7.90;;;5.60;;
10910;SDS011;5508;49.150;11.030;2023-09-12T14:36:26;13.60;;;5.95;;
10910;SDS011;5508;49.150;11.030;2023-09-12T14:39:27;6.82;;;6.10;;
10910;SDS011;5508;49.150;11.030;2023-09-12T14:42:27;6.43;;;5.63;;
10910;SDS011;5508;49.150;11.030;2023-09-12T14:45:29;8.20;;;5.90;;
10910;SDS011;5508;49.150;11.030;2023-09-12T14:48:30;6.50;;;5.90;;
10910;SDS011;5508;49.150;11.030;2023-09-12T14:51:33;7.35;;;5.47;;
10910;SDS011;5508;49.150;11.030;2023-09-12T14:54:34;7.07;;;5.90;;
10910;SDS011;5508;49.150;11.030;2023-09-12T14:57:35;7.43;;;5.32;;
10910;SDS011;5508;49.150;11.030;2023-09-12T15:00:35;8.05;;;5.97;;
10910;SDS011;5508;49.150;11.030;2023-09-12T15:03:37;8.48;;;5.38;;
10910;SDS011;5508;49.150;11.030;2023-09-12T15:06:38;8.20;;;6.22;;
10910;SDS011;5508;49.150;11.030;2023-09-12T15:09:39;7.32;;;6.47;;
10910;SDS011;5508;49.150;11.030;2023-09-12T15:12:40;9.43;;;6.90;;
10910;SDS011;5508;49.150;11.030;2023-09-12T15:15:40;11.63;;;6.68;;
10910;SDS011;5508;49.150;11.030;2023-09-12T15:18:41;6.35;;;5.75;;
10910;SDS011;5508;49.150;11.030;2023-09-12T15:21:42;9.35;;;6.60;;
10910;SDS011;5508;49.150;11.030;2023-09-12T15:24:42;8.00;;;6.32;;
10910;SDS011;5508;49.150;11.030;2023-09-12T15:27:43;8.00;;;5.80;;
10910;SDS011;5508;49.150;11.030;2023-09-12T15:30:43;7.30;;;6.60;;
10910;SDS011;5508;49.150;11.030;2023-09-12T15:33:44;6.95;;;6.22;;
10910;SDS011;5508;49.150;11.030;2023-09-12T15:36:46;8.52;;;6.40;;
10910;SDS011;5508;49.150;11.030;2023-09-12T15:39:47;8.68;;;6.28;;
10910;SDS011;5508;49.150;11.030;2023-09-12T15:42:48;6.53;;;5.93;;
10910;SDS011;5508;49.150;11.030;2023-09-12T15:45:49;8.50;;;6.13;;
10910;SDS011;5508;49.150;11.030;2023-09-12T15:48:49;8.82;;;5.88;;
10910;SDS011;5508;49.150;11.030;2023-09-12T15:51:50;5.93;;;5.43;;
10910;SDS011;5508;49.150;11.030;2023-09-12T15:54:51;11.13;;;6.30;;
10910;SDS011;5508;49.150;11.030;2023-09-12T15:57:52;8.63;;;6.18;;
10910;SDS011;5508;49.150;11.030;2023-09-12T16:00:52;7.05;;;6.35;;
10910;SDS011;5508;49.150;11.030;2023-09-12T16:03:53;9.00;;;6.15;;
10910;SDS011;5508;49.150;11.030;2023-09-12T16:06:54;6.57;;;5.90;;
10910;SDS011;5508;49.150;11.030;2023-09-12T16:09:55;7.65;;;6.78;;
10910;SDS011;5508;49.150;11.030;2023-09-12T16:12:55;8.35;;;6.60;;
10910;SDS011;5508;49.150;11.030;2023-09-12T16:15:56;6.70;;;5.97;;
10910;SDS011;5508;49.150;11.030;2023-09-12T16:18:56;7.22;;;6.50;;
10910;SDS011;5508;49.150;11.030;2023-09-12T16:21:57;10.43;;;6.57;;
10910;SDS011;5508;49.150;11.030;2023-09-12T16:24:57;10.23;;;6.88;;
10910;SDS011;5508;49.150;11.030;2023-09-12T16:27:58;9.50;;;7.40;;
10910;SDS011;5508;49.150;11.030;2023-09-12T16:30:58;9.60;;;6.70;;
10910;SDS011;5508;49.150;11.030;2023-09-12T16:33:59;7.93;;;6.88;;
10910;SDS011;5508;49.150;11.030;2023-09-12T16:37:00;9.25;;;6.75;;
10910;SDS011;5508;49.150;11.030;2023-09-12T16:40:00;8.95;;;7.55;;
10910;SDS011;5508;49.150;11.030;2023-09-12T16:43:01;9.40;;;6.80;;
10910;SDS011;5508;49.150;11.030;2023-09-12T16:46:02;7.57;;;6.55;;
10910;SDS011;5508;49.150;11.030;2023-09-12T16:49:03;7.00;;;6.22;;
10910;SDS011;5508;49.150;11.030;2023-09-12T16:52:03;9.25;;;6.95;;
10910;SDS011;5508;49.150;11.030;2023-09-12T16:55:12;9.00;;;7.28;;
10910;SDS011;5508;49.150;11.030;2023-09-12T16:58:13;9.98;;;7.40;;
10910;SDS011;5508;49.150;11.030;2023-09-12T17:01:13;8.98;;;7.35;;
10910;SDS011;5508;49.150;11.030;2023-09-12T17:04:14;11.73;;;7.68;;
10910;SDS011;5508;49.150;11.030;2023-09-12T17:07:14;13.10;;;7.43;;
10910;SDS011;5508;49.150;11.030;2023-09-12T17:10:16;9.48;;;8.30;;
10910;SDS011;5508;49.150;11.030;2023-09-12T17:13:16;7.88;;;7.10;;
10910;SDS011;5508;49.150;11.030;2023-09-12T17:16:17;10.18;;;7.43;;
10910;SDS011;5508;49.150;11.030;2023-09-12T17:19:18;11.95;;;7.85;;
10910;SDS011;5508;49.150;11.030;2023-09-12T17:22:20;8.40;;;7.07;;
10910;SDS011;5508;49.150;11.030;2023-09-12T17:25:20;9.63;;;8.20;;
10910;SDS011;5508;49.150;11.030;2023-09-12T17:28:21;11.55;;;8.50;;
10910;SDS011;5508;49.150;11.030;2023-09-12T17:31:22;11.50;;;8.23;;
10910;SDS011;5508;49.150;11.030;2023-09-12T17:34:41;10.82;;;7.65;;
10910;SDS011;5508;49.150;11.030;2023-09-12T17:37:50;10.55;;;7.78;;
10910;SDS011;5508;49.150;11.030;2023-09-12T17:40:50;9.35;;;7.13;;
10910;SDS011;5508;49.150;11.030;2023-09-12T17:43:51;8.45;;;7.55;;
10910;SDS011;5508;49.150;11.030;2023-09-12T17:46:52;8.30;;;7.60;;
10910;SDS011;5508;49.150;11.030;2023-09-12T17:49:53;9.25;;;7.85;;
10910;SDS011;5508;49.150;11.030;2023-09-12T17:52:53;8.63;;;7.05;;
10910;SDS011;5508;49.150;11.030;2023-09-12T17:55:54;8.77;;;7.50;;
10910;SDS011;5508;49.150;11.030;2023-09-12T17:58:54;11.75;;;8.18;;
10910;SDS011;5508;49.150;11.030;2023-09-12T18:01:55;14.77;;;9.02;;
10910;SDS011;5508;49.150;11.030;2023-09-12T18:04:55;9.38;;;8.48;;
10910;SDS011;5508;49.150;11.030;2023-09-12T18:07:56;8.75;;;7.90;;
10910;SDS011;5508;49.150;11.030;2023-09-12T18:10:58;9.85;;;7.60;;
10910;SDS011;5508;49.150;11.030;2023-09-12T18:13:58;9.35;;;8.32;;